sensor_id;sensor_type;location;lat;lon;timestamp;P1;durP1;ratioP1;P2;durP2;ratioP2
76035;SDS011;64732;56.314;44.068;2022-12-18T00:00:25;31.35;;;12.13;;
76035;SDS011;64732;56.314;44.068;2022-12-18T00:02:46;34.00;;;12.90;;
76035;SDS011;64732;56.314;44.068;2022-12-18T00:05:08;35.03;;;12.52;;
76035;SDS011;64732;56.314;44.068;2022-12-18T00:07:29;35.67;;;12.57;;
76035;SDS011;64732;56.314;44.068;2022-12-18T00:09:52;32.08;;;12.18;;
76035;SDS011;64732;56.314;44.068;2022-12-18T00:12:13;32.65;;;12.57;;
76035;SDS011;64732;56.314;44.068;2022-12-18T00:14:34;33.55;;;13.40;;
76035;SDS011;64732;56.314;44.068;2022-12-18T00:16:55;32.85;;;11.82;;
76035;SDS011;64732;56.314;44.068;2022-12-18T00:19:16;35.13;;;12.60;;
76035;SDS011;64732;56.314;44.068;2022-12-18T00:21:41;29.38;;;10.95;;
76035;SDS011;64732;56.314;44.068;2022-12-18T00:24:02;32.15;;;12.82;;
76035;SDS011;64732;56.314;44.068;2022-12-18T00:26:27;34.15;;;12.98;;
76035;SDS011;64732;56.314;44.068;2022-12-18T00:28:49;35.28;;;12.60;;
76035;SDS011;64732;56.314;44.068;2022-12-18T00:31:11;31.85;;;12.50;;
76035;SDS011;64732;56.314;44.068;2022-12-18T00:33:34;34.65;;;13.20;;
76035;SDS011;64732;56.314;44.068;2022-12-18T00:35:59;32.60;;;12.60;;
76035;SDS011;64732;56.314;44.068;2022-12-18T00:38:21;29.42;;;11.27;;
76035;SDS011;64732;56.314;44.068;2022-12-18T00:40:42;33.95;;;12.35;;
76035;SDS011;64732;56.314;44.068;2022-12-18T00:43:08;37.03;;;13.25;;
76035;SDS011;64732;56.314;44.068;2022-12-18T00:45:29;33.88;;;12.15;;
76035;SDS011;64732;56.314;44.068;2022-12-18T00:47:51;32.42;;;12.30;;
76035;SDS011;64732;56.314;44.068;2022-12-18T00:50:12;39.40;;;12.93;;
76035;SDS011;64732;56.314;44.068;2022-12-18T00:52:42;28.92;;;11.27;;
76035;SDS011;64732;56.314;44.068;2022-12-18T00:55:03;31.02;;;12.45;;
76035;SDS011;64732;56.314;44.068;2022-12-18T00:57:25;29.45;;;11.93;;
76035;SDS011;64732;56.314;44.068;2022-12-18T00:59:49;27.95;;;11.27;;
76035;SDS011;64732;56.314;44.068;2022-12-18T01:02:12;32.17;;;12.55;;
76035;SDS011;64732;56.314;44.068;2022-12-18T01:04:33;29.25;;;11.10;;
76035;SDS011;64732;56.314;44.068;2022-12-18T01:06:54;26.85;;;11.45;;
76035;SDS011;64732;56.314;44.068;2022-12-18T01:09:15;30.33;;;12.45;;
76035;SDS011;64732;56.314;44.068;2022-12-18T01:11:36;34.35;;;13.18;;
76035;SDS011;64732;56.314;44.068;2022-12-18T01:14:01;28.58;;;11.75;;
76035;SDS011;64732;56.314;44.068;2022-12-18T01:16:24;29.83;;;12.30;;
76035;SDS011;64732;56.314;44.068;2022-12-18T01:18:45;29.27;;;12.05;;
76035;SDS011;64732;56.314;44.068;2022-12-18T01:21:07;26.73;;;11.20;;
76035;SDS011;64732;56.314;44.068;2022-12-18T01:23:29;26.60;;;11.50;;
76035;SDS011;64732;56.314;44.068;2022-12-18T01:25:49;32.90;;;12.82;;
76035;SDS011;64732;56.314;44.068;2022-12-18T01:28:10;29.23;;;11.98;;
76035;SDS011;64732;56.314;44.068;2022-12-18T01:30:31;27.15;;;11.35;;
76035;SDS011;64732;56.314;44.068;2022-12-18T01:32:55;29.80;;;11.32;;
76035;SDS011;64732;56.314;44.068;2022-12-18T01:35:16;26.95;;;11.10;;
76035;SDS011;64732;56.314;44.068;2022-12-18T01:37:37;26.38;;;11.63;;
76035;SDS011;64732;56.314;44.068;2022-12-18T01:39:58;26.40;;;10.98;;
76035;SDS011;64732;56.314;44.068;2022-12-18T01:42:19;27.23;;;11.05;;
76035;SDS011;64732;56.314;44.068;2022-12-18T01:47:18;27.65;;;10.82;;
76035;SDS011;64732;56.314;44.068;2022-12-18T01:49:46;26.00;;;10.70;;
76035;SDS011;64732;56.314;44.068;2022-12-18T01:52:07;25.70;;;11.00;;
76035;SDS011;64732;56.314;44.068;2022-12-18T01:54:28;31.10;;;11.85;;
76035;SDS011;64732;56.314;44.068;2022-12-18T01:56:49;27.30;;;11.38;;
76035;SDS011;64732;56.314;44.068;2022-12-18T01:59:10;29.83;;;11.15;;
76035;SDS011;64732;56.314;44.068;2022-12-18T02:01:32;26.63;;;10.63;;
76035;SDS011;64732;56.314;44.068;2022-12-18T02:03:53;26.35;;;11.82;;
76035;SDS011;64732;56.314;44.068;2022-12-18T02:06:18;25.13;;;10.45;;
76035;SDS011;64732;56.314;44.068;2022-12-18T02:08:43;23.55;;;10.02;;
76035;SDS011;64732;56.314;44.068;2022-12-18T02:11:10;23.55;;;9.85;;
76035;SDS011;64732;56.314;44.068;2022-12-18T02:13:37;27.55;;;11.00;;
76035;SDS011;64732;56.314;44.068;2022-12-18T02:16:21;21.23;;;8.52;;
76035;SDS011;64732;56.314;44.068;2022-12-18T02:18:46;25.88;;;10.68;;
76035;SDS011;64732;56.314;44.068;2022-12-18T02:21:11;25.13;;;9.27;;
76035;SDS011;64732;56.314;44.068;2022-12-18T02:23:41;25.42;;;9.98;;
76035;SDS011;64732;56.314;44.068;2022-12-18T02:26:12;25.83;;;10.43;;
76035;SDS011;64732;56.314;44.068;2022-12-18T02:28:41;24.98;;;9.90;;
76035;SDS011;64732;56.314;44.068;2022-12-18T02:31:04;21.10;;;8.95;;
76035;SDS011;64732;56.314;44.068;2022-12-18T02:33:29;23.48;;;10.02;;
76035;SDS011;64732;56.314;44.068;2022-12-18T02:35:50;25.48;;;10.85;;
76035;SDS011;64732;56.314;44.068;2022-12-18T02:38:12;27.90;;;11.25;;
76035;SDS011;64732;56.314;44.068;2022-12-18T02:40:38;22.52;;;9.50;;
76035;SDS011;64732;56.314;44.068;2022-12-18T02:43:06;22.65;;;9.98;;
76035;SDS011;64732;56.314;44.068;2022-12-18T02:45:30;26.67;;;10.32;;
76035;SDS011;64732;56.314;44.068;2022-12-18T02:47:53;25.23;;;10.27;;
76035;SDS011;64732;56.314;44.068;2022-12-18T02:50:17;22.33;;;9.50;;
76035;SDS011;64732;56.314;44.068;2022-12-18T02:52:41;20.15;;;9.32;;
76035;SDS011;64732;56.314;44.068;2022-12-18T02:55:13;20.88;;;7.47;;
76035;SDS011;64732;56.314;44.068;2022-12-18T02:57:40;20.73;;;8.63;;
76035;SDS011;64732;56.314;44.068;2022-12-18T03:00:10;22.65;;;8.95;;
76035;SDS011;64732;56.314;44.068;2022-12-18T03:02:34;17.65;;;6.90;;
76035;SDS011;64732;56.314;44.068;2022-12-18T03:05:00;20.83;;;8.57;;
76035;SDS011;64732;56.314;44.068;2022-12-18T03:07:26;17.30;;;8.25;;
76035;SDS011;64732;56.314;44.068;2022-12-18T03:09:54;21.75;;;8.68;;
76035;SDS011;64732;56.314;44.068;2022-12-18T03:12:17;18.02;;;7.20;;
76035;SDS011;64732;56.314;44.068;2022-12-18T03:14:40;19.05;;;8.40;;
76035;SDS011;64732;56.314;44.068;2022-12-18T03:17:05;20.98;;;8.77;;
76035;SDS011;64732;56.314;44.068;2022-12-18T03:19:28;16.33;;;7.13;;
76035;SDS011;64732;56.314;44.068;2022-12-18T03:21:53;16.65;;;7.10;;
76035;SDS011;64732;56.314;44.068;2022-12-18T03:24:15;18.83;;;8.45;;
76035;SDS011;64732;56.314;44.068;2022-12-18T03:26:37;16.95;;;7.50;;
76035;SDS011;64732;56.314;44.068;2022-12-18T03:29:02;18.20;;;7.63;;
76035;SDS011;64732;56.314;44.068;2022-12-18T03:31:25;16.10;;;6.80;;
76035;SDS011;64732;56.314;44.068;2022-12-18T03:33:54;16.50;;;7.65;;
76035;SDS011;64732;56.314;44.068;2022-12-18T03:36:16;19.17;;;7.47;;
76035;SDS011;64732;56.314;44.068;2022-12-18T03:38:36;18.42;;;7.53;;
76035;SDS011;64732;56.314;44.068;2022-12-18T03:40:59;14.93;;;6.30;;
76035;SDS011;64732;56.314;44.068;2022-12-18T03:43:28;16.92;;;6.95;;
76035;SDS011;64732;56.314;44.068;2022-12-18T03:45:58;16.90;;;7.45;;
76035;SDS011;64732;56.314;44.068;2022-12-18T03:48:25;17.92;;;7.68;;
76035;SDS011;64732;56.314;44.068;2022-12-18T03:50:53;15.93;;;7.00;;
76035;SDS011;64732;56.314;44.068;2022-12-18T03:53:18;16.42;;;6.60;;
76035;SDS011;64732;56.314;44.068;2022-12-18T03:55:44;16.05;;;7.35;;
76035;SDS011;64732;56.314;44.068;2022-12-18T03:58:06;17.27;;;6.55;;
76035;SDS011;64732;56.314;44.068;2022-12-18T04:00:28;13.20;;;6.93;;
76035;SDS011;64732;56.314;44.068;2022-12-18T04:02:50;17.90;;;7.63;;
76035;SDS011;64732;56.314;44.068;2022-12-18T04:05:13;15.63;;;7.03;;
76035;SDS011;64732;56.314;44.068;2022-12-18T04:07:37;13.85;;;6.28;;
76035;SDS011;64732;56.314;44.068;2022-12-18T04:09:59;17.05;;;7.05;;
76035;SDS011;64732;56.314;44.068;2022-12-18T04:12:24;14.00;;;6.20;;
76035;SDS011;64732;56.314;44.068;2022-12-18T04:14:45;15.45;;;7.32;;
76035;SDS011;64732;56.314;44.068;2022-12-18T04:17:06;14.68;;;6.53;;
76035;SDS011;64732;56.314;44.068;2022-12-18T04:19:29;16.33;;;6.82;;
76035;SDS011;64732;56.314;44.068;2022-12-18T04:21:50;15.38;;;6.68;;
76035;SDS011;64732;56.314;44.068;2022-12-18T04:24:14;15.85;;;6.65;;
76035;SDS011;64732;56.314;44.068;2022-12-18T04:26:43;13.88;;;6.20;;
76035;SDS011;64732;56.314;44.068;2022-12-18T04:29:04;16.52;;;7.07;;
76035;SDS011;64732;56.314;44.068;2022-12-18T04:31:25;16.98;;;6.43;;
76035;SDS011;64732;56.314;44.068;2022-12-18T04:33:46;14.90;;;7.22;;
76035;SDS011;64732;56.314;44.068;2022-12-18T04:36:07;16.98;;;6.78;;
76035;SDS011;64732;56.314;44.068;2022-12-18T04:38:30;14.02;;;6.13;;
76035;SDS011;64732;56.314;44.068;2022-12-18T04:40:54;16.10;;;6.95;;
76035;SDS011;64732;56.314;44.068;2022-12-18T04:43:15;14.98;;;6.78;;
76035;SDS011;64732;56.314;44.068;2022-12-18T04:45:36;15.65;;;6.40;;
76035;SDS011;64732;56.314;44.068;2022-12-18T04:47:57;15.18;;;6.82;;
76035;SDS011;64732;56.314;44.068;2022-12-18T04:50:18;16.30;;;7.30;;
76035;SDS011;64732;56.314;44.068;2022-12-18T04:52:40;16.55;;;6.40;;
76035;SDS011;64732;56.314;44.068;2022-12-18T04:55:02;16.83;;;7.43;;
76035;SDS011;64732;56.314;44.068;2022-12-18T04:57:28;13.80;;;6.47;;
76035;SDS011;64732;56.314;44.068;2022-12-18T04:59:49;14.65;;;6.85;;
76035;SDS011;64732;56.314;44.068;2022-12-18T05:02:10;16.02;;;7.00;;
76035;SDS011;64732;56.314;44.068;2022-12-18T05:04:31;18.73;;;7.75;;
76035;SDS011;64732;56.314;44.068;2022-12-18T05:06:52;15.75;;;6.85;;
76035;SDS011;64732;56.314;44.068;2022-12-18T05:09:14;16.08;;;6.63;;
76035;SDS011;64732;56.314;44.068;2022-12-18T05:11:37;18.35;;;6.80;;
76035;SDS011;64732;56.314;44.068;2022-12-18T05:14:01;14.35;;;6.45;;
76035;SDS011;64732;56.314;44.068;2022-12-18T05:16:22;16.67;;;6.70;;
76035;SDS011;64732;56.314;44.068;2022-12-18T05:18:43;16.70;;;6.95;;
76035;SDS011;64732;56.314;44.068;2022-12-18T05:21:04;16.88;;;7.10;;
76035;SDS011;64732;56.314;44.068;2022-12-18T05:23:25;14.82;;;6.15;;
76035;SDS011;64732;56.314;44.068;2022-12-18T05:25:50;11.23;;;5.43;;
76035;SDS011;64732;56.314;44.068;2022-12-18T05:28:11;16.55;;;7.70;;
76035;SDS011;64732;56.314;44.068;2022-12-18T05:30:35;18.60;;;7.55;;
76035;SDS011;64732;56.314;44.068;2022-12-18T05:32:59;15.40;;;6.72;;
76035;SDS011;64732;56.314;44.068;2022-12-18T05:35:20;18.42;;;6.88;;
76035;SDS011;64732;56.314;44.068;2022-12-18T05:37:40;18.77;;;6.65;;
76035;SDS011;64732;56.314;44.068;2022-12-18T05:40:02;17.83;;;7.07;;
76035;SDS011;64732;56.314;44.068;2022-12-18T05:42:24;17.38;;;7.20;;
76035;SDS011;64732;56.314;44.068;2022-12-18T05:44:45;19.25;;;7.40;;
76035;SDS011;64732;56.314;44.068;2022-12-18T05:47:09;18.88;;;8.23;;
76035;SDS011;64732;56.314;44.068;2022-12-18T05:49:30;17.48;;;7.72;;
76035;SDS011;64732;56.314;44.068;2022-12-18T05:51:50;18.40;;;8.38;;
76035;SDS011;64732;56.314;44.068;2022-12-18T05:54:11;17.45;;;7.32;;
76035;SDS011;64732;56.314;44.068;2022-12-18T05:56:32;18.73;;;7.53;;
76035;SDS011;64732;56.314;44.068;2022-12-18T05:58:53;18.45;;;7.35;;
76035;SDS011;64732;56.314;44.068;2022-12-18T06:01:15;17.38;;;7.95;;
76035;SDS011;64732;56.314;44.068;2022-12-18T06:03:42;17.52;;;6.78;;
76035;SDS011;64732;56.314;44.068;2022-12-18T06:06:03;16.02;;;7.00;;
76035;SDS011;64732;56.314;44.068;2022-12-18T06:08:32;19.02;;;7.65;;
76035;SDS011;64732;56.314;44.068;2022-12-18T06:10:53;18.10;;;7.70;;
76035;SDS011;64732;56.314;44.068;2022-12-18T06:13:14;13.90;;;4.90;;
76035;SDS011;64732;56.314;44.068;2022-12-18T06:15:38;20.02;;;7.13;;
76035;SDS011;64732;56.314;44.068;2022-12-18T06:18:00;21.98;;;8.80;;
76035;SDS011;64732;56.314;44.068;2022-12-18T06:20:26;18.85;;;7.63;;
76035;SDS011;64732;56.314;44.068;2022-12-18T06:22:54;17.13;;;7.68;;
76035;SDS011;64732;56.314;44.068;2022-12-18T06:25:17;15.35;;;6.50;;
76035;SDS011;64732;56.314;44.068;2022-12-18T06:27:39;18.88;;;7.75;;
76035;SDS011;64732;56.314;44.068;2022-12-18T06:30:01;14.60;;;6.53;;
76035;SDS011;64732;56.314;44.068;2022-12-18T06:32:25;21.15;;;8.90;;
76035;SDS011;64732;56.314;44.068;2022-12-18T06:34:46;16.27;;;7.57;;
76035;SDS011;64732;56.314;44.068;2022-12-18T06:37:10;13.85;;;5.70;;
76035;SDS011;64732;56.314;44.068;2022-12-18T06:39:33;9.18;;;4.30;;
76035;SDS011;64732;56.314;44.068;2022-12-18T06:41:54;16.63;;;6.57;;
76035;SDS011;64732;56.314;44.068;2022-12-18T06:44:17;18.95;;;7.15;;
76035;SDS011;64732;56.314;44.068;2022-12-18T06:46:39;19.73;;;8.88;;
76035;SDS011;64732;56.314;44.068;2022-12-18T06:49:00;18.45;;;7.18;;
76035;SDS011;64732;56.314;44.068;2022-12-18T06:51:22;22.05;;;8.70;;
76035;SDS011;64732;56.314;44.068;2022-12-18T06:53:46;18.10;;;7.15;;
76035;SDS011;64732;56.314;44.068;2022-12-18T06:56:07;18.23;;;7.28;;
76035;SDS011;64732;56.314;44.068;2022-12-18T06:58:28;21.13;;;7.63;;
76035;SDS011;64732;56.314;44.068;2022-12-18T07:00:49;14.68;;;6.63;;
76035;SDS011;64732;56.314;44.068;2022-12-18T07:03:10;10.43;;;5.13;;
76035;SDS011;64732;56.314;44.068;2022-12-18T07:05:32;19.10;;;7.38;;
76035;SDS011;64732;56.314;44.068;2022-12-18T07:07:53;16.83;;;7.15;;
76035;SDS011;64732;56.314;44.068;2022-12-18T07:10:17;15.77;;;6.80;;
76035;SDS011;64732;56.314;44.068;2022-12-18T07:12:38;14.52;;;5.68;;
76035;SDS011;64732;56.314;44.068;2022-12-18T07:14:59;18.35;;;7.18;;
76035;SDS011;64732;56.314;44.068;2022-12-18T07:17:20;19.40;;;8.30;;
76035;SDS011;64732;56.314;44.068;2022-12-18T07:19:41;15.57;;;6.22;;
76035;SDS011;64732;56.314;44.068;2022-12-18T07:22:02;12.68;;;5.47;;
76035;SDS011;64732;56.314;44.068;2022-12-18T07:24:23;16.80;;;5.78;;
76035;SDS011;64732;56.314;44.068;2022-12-18T07:26:47;21.30;;;7.63;;
76035;SDS011;64732;56.314;44.068;2022-12-18T07:29:09;12.73;;;5.75;;
76035;SDS011;64732;56.314;44.068;2022-12-18T07:31:30;16.00;;;6.78;;
76035;SDS011;64732;56.314;44.068;2022-12-18T07:33:55;15.60;;;5.57;;
76035;SDS011;64732;56.314;44.068;2022-12-18T07:36:19;23.88;;;7.95;;
76035;SDS011;64732;56.314;44.068;2022-12-18T07:38:43;20.05;;;8.10;;
76035;SDS011;64732;56.314;44.068;2022-12-18T07:41:07;11.63;;;4.88;;
76035;SDS011;64732;56.314;44.068;2022-12-18T07:43:35;16.20;;;6.53;;
76035;SDS011;64732;56.314;44.068;2022-12-18T07:45:56;21.77;;;8.98;;
76035;SDS011;64732;56.314;44.068;2022-12-18T07:48:17;15.93;;;7.32;;
76035;SDS011;64732;56.314;44.068;2022-12-18T07:50:38;19.63;;;7.65;;
76035;SDS011;64732;56.314;44.068;2022-12-18T07:52:59;14.38;;;5.63;;
76035;SDS011;64732;56.314;44.068;2022-12-18T07:55:22;16.85;;;7.25;;
76035;SDS011;64732;56.314;44.068;2022-12-18T07:57:43;15.15;;;6.35;;
76035;SDS011;64732;56.314;44.068;2022-12-18T08:00:07;9.50;;;4.63;;
76035;SDS011;64732;56.314;44.068;2022-12-18T08:02:30;18.88;;;7.15;;
76035;SDS011;64732;56.314;44.068;2022-12-18T08:04:51;13.55;;;5.45;;
76035;SDS011;64732;56.314;44.068;2022-12-18T08:07:12;13.65;;;5.72;;
76035;SDS011;64732;56.314;44.068;2022-12-18T08:09:33;17.00;;;7.70;;
76035;SDS011;64732;56.314;44.068;2022-12-18T08:11:54;21.10;;;8.20;;
76035;SDS011;64732;56.314;44.068;2022-12-18T08:14:15;21.85;;;7.13;;
76035;SDS011;64732;56.314;44.068;2022-12-18T08:16:39;20.48;;;8.07;;
76035;SDS011;64732;56.314;44.068;2022-12-18T08:19:00;11.60;;;5.05;;
76035;SDS011;64732;56.314;44.068;2022-12-18T08:21:21;16.35;;;7.45;;
76035;SDS011;64732;56.314;44.068;2022-12-18T08:23:43;16.80;;;7.18;;
76035;SDS011;64732;56.314;44.068;2022-12-18T08:26:05;19.25;;;7.13;;
76035;SDS011;64732;56.314;44.068;2022-12-18T08:28:26;15.63;;;5.95;;
76035;SDS011;64732;56.314;44.068;2022-12-18T08:30:47;13.10;;;5.18;;
76035;SDS011;64732;56.314;44.068;2022-12-18T08:33:14;15.15;;;6.22;;
76035;SDS011;64732;56.314;44.068;2022-12-18T08:35:35;16.73;;;5.88;;
76035;SDS011;64732;56.314;44.068;2022-12-18T08:37:56;19.77;;;8.40;;
76035;SDS011;64732;56.314;44.068;2022-12-18T08:40:17;23.73;;;7.90;;
76035;SDS011;64732;56.314;44.068;2022-12-18T08:42:38;18.08;;;5.95;;
76035;SDS011;64732;56.314;44.068;2022-12-18T08:44:59;23.13;;;8.68;;
76035;SDS011;64732;56.314;44.068;2022-12-18T08:47:20;23.45;;;8.38;;
76035;SDS011;64732;56.314;44.068;2022-12-18T08:49:44;24.42;;;9.48;;
76035;SDS011;64732;56.314;44.068;2022-12-18T08:52:05;14.85;;;7.07;;
76035;SDS011;64732;56.314;44.068;2022-12-18T08:54:26;20.70;;;9.07;;
76035;SDS011;64732;56.314;44.068;2022-12-18T08:56:48;20.23;;;8.55;;
76035;SDS011;64732;56.314;44.068;2022-12-18T08:59:09;20.10;;;8.60;;
76035;SDS011;64732;56.314;44.068;2022-12-18T09:01:30;17.95;;;8.18;;
76035;SDS011;64732;56.314;44.068;2022-12-18T09:03:51;20.80;;;6.95;;
76035;SDS011;64732;56.314;44.068;2022-12-18T09:06:16;13.65;;;6.03;;
76035;SDS011;64732;56.314;44.068;2022-12-18T09:08:38;18.85;;;7.88;;
76035;SDS011;64732;56.314;44.068;2022-12-18T09:11:09;20.92;;;9.07;;
76035;SDS011;64732;56.314;44.068;2022-12-18T09:13:32;24.15;;;9.75;;
76035;SDS011;64732;56.314;44.068;2022-12-18T09:15:54;24.00;;;9.52;;
76035;SDS011;64732;56.314;44.068;2022-12-18T09:18:16;21.73;;;9.52;;
76035;SDS011;64732;56.314;44.068;2022-12-18T09:20:38;20.27;;;7.95;;
76035;SDS011;64732;56.314;44.068;2022-12-18T09:23:02;20.92;;;8.07;;
76035;SDS011;64732;56.314;44.068;2022-12-18T09:25:23;21.10;;;9.40;;
76035;SDS011;64732;56.314;44.068;2022-12-18T09:27:46;23.20;;;9.80;;
76035;SDS011;64732;56.314;44.068;2022-12-18T09:30:07;19.20;;;9.25;;
76035;SDS011;64732;56.314;44.068;2022-12-18T09:32:29;25.92;;;10.60;;
76035;SDS011;64732;56.314;44.068;2022-12-18T09:34:50;16.52;;;6.63;;
76035;SDS011;64732;56.314;44.068;2022-12-18T09:37:11;25.00;;;9.80;;
76035;SDS011;64732;56.314;44.068;2022-12-18T09:39:35;22.92;;;8.23;;
76035;SDS011;64732;56.314;44.068;2022-12-18T09:41:57;21.50;;;8.82;;
76035;SDS011;64732;56.314;44.068;2022-12-18T09:44:20;22.58;;;9.55;;
76035;SDS011;64732;56.314;44.068;2022-12-18T09:46:44;24.83;;;11.32;;
76035;SDS011;64732;56.314;44.068;2022-12-18T09:49:07;26.35;;;11.45;;
76035;SDS011;64732;56.314;44.068;2022-12-18T09:51:33;25.35;;;10.60;;
76035;SDS011;64732;56.314;44.068;2022-12-18T09:53:57;13.40;;;5.38;;
76035;SDS011;64732;56.314;44.068;2022-12-18T09:56:24;24.95;;;10.45;;
76035;SDS011;64732;56.314;44.068;2022-12-18T09:58:48;14.05;;;6.72;;
76035;SDS011;64732;56.314;44.068;2022-12-18T10:01:13;24.83;;;10.25;;
76035;SDS011;64732;56.314;44.068;2022-12-18T10:03:35;20.52;;;8.57;;
76035;SDS011;64732;56.314;44.068;2022-12-18T10:05:59;19.77;;;8.55;;
76035;SDS011;64732;56.314;44.068;2022-12-18T10:08:24;20.88;;;9.50;;
76035;SDS011;64732;56.314;44.068;2022-12-18T10:10:56;17.58;;;7.70;;
76035;SDS011;64732;56.314;44.068;2022-12-18T10:13:24;21.60;;;9.02;;
76035;SDS011;64732;56.314;44.068;2022-12-18T10:15:51;16.23;;;7.07;;
76035;SDS011;64732;56.314;44.068;2022-12-18T10:18:21;10.35;;;4.60;;
76035;SDS011;64732;56.314;44.068;2022-12-18T10:20:52;18.83;;;6.40;;
76035;SDS011;64732;56.314;44.068;2022-12-18T10:23:17;21.13;;;7.80;;
76035;SDS011;64732;56.314;44.068;2022-12-18T10:25:43;17.13;;;7.20;;
76035;SDS011;64732;56.314;44.068;2022-12-18T10:28:13;13.65;;;5.95;;
76035;SDS011;64732;56.314;44.068;2022-12-18T10:30:39;20.60;;;8.80;;
76035;SDS011;64732;56.314;44.068;2022-12-18T10:33:01;14.48;;;5.85;;
76035;SDS011;64732;56.314;44.068;2022-12-18T10:35:23;13.35;;;5.57;;
76035;SDS011;64732;56.314;44.068;2022-12-18T10:37:59;18.10;;;7.15;;
76035;SDS011;64732;56.314;44.068;2022-12-18T10:40:23;15.07;;;6.10;;
76035;SDS011;64732;56.314;44.068;2022-12-18T10:42:44;19.75;;;8.43;;
76035;SDS011;64732;56.314;44.068;2022-12-18T10:45:09;13.40;;;5.60;;
76035;SDS011;64732;56.314;44.068;2022-12-18T10:47:33;17.38;;;7.50;;
76035;SDS011;64732;56.314;44.068;2022-12-18T10:49:54;20.05;;;7.70;;
76035;SDS011;64732;56.314;44.068;2022-12-18T10:52:17;21.90;;;9.20;;
76035;SDS011;64732;56.314;44.068;2022-12-18T10:54:39;17.40;;;6.90;;
76035;SDS011;64732;56.314;44.068;2022-12-18T10:57:13;17.23;;;7.80;;
76035;SDS011;64732;56.314;44.068;2022-12-18T10:59:35;12.88;;;5.43;;
76035;SDS011;64732;56.314;44.068;2022-12-18T11:02:23;18.70;;;7.43;;
76035;SDS011;64732;56.314;44.068;2022-12-18T11:04:52;16.15;;;5.75;;
76035;SDS011;64732;56.314;44.068;2022-12-18T11:07:12;16.63;;;6.47;;
76035;SDS011;64732;56.314;44.068;2022-12-18T11:09:34;21.75;;;9.70;;
76035;SDS011;64732;56.314;44.068;2022-12-18T11:11:56;24.63;;;9.45;;
76035;SDS011;64732;56.314;44.068;2022-12-18T11:14:19;18.17;;;8.00;;
76035;SDS011;64732;56.314;44.068;2022-12-18T11:16:45;16.83;;;6.75;;
76035;SDS011;64732;56.314;44.068;2022-12-18T11:19:10;17.75;;;8.82;;
76035;SDS011;64732;56.314;44.068;2022-12-18T11:21:41;23.98;;;9.25;;
76035;SDS011;64732;56.314;44.068;2022-12-18T11:24:02;18.58;;;7.80;;
76035;SDS011;64732;56.314;44.068;2022-12-18T11:26:25;19.23;;;8.32;;
76035;SDS011;64732;56.314;44.068;2022-12-18T11:29:07;15.02;;;6.70;;
76035;SDS011;64732;56.314;44.068;2022-12-18T11:31:29;15.63;;;8.00;;
76035;SDS011;64732;56.314;44.068;2022-12-18T11:33:52;16.17;;;5.47;;
76035;SDS011;64732;56.314;44.068;2022-12-18T11:36:17;16.45;;;6.95;;
76035;SDS011;64732;56.314;44.068;2022-12-18T11:38:45;18.60;;;7.55;;
76035;SDS011;64732;56.314;44.068;2022-12-18T11:41:11;14.75;;;6.15;;
76035;SDS011;64732;56.314;44.068;2022-12-18T11:43:37;17.27;;;6.97;;
76035;SDS011;64732;56.314;44.068;2022-12-18T11:46:00;13.98;;;5.43;;
76035;SDS011;64732;56.314;44.068;2022-12-18T11:48:25;15.43;;;5.75;;
76035;SDS011;64732;56.314;44.068;2022-12-18T11:50:49;20.65;;;7.55;;
76035;SDS011;64732;56.314;44.068;2022-12-18T11:53:11;16.88;;;7.18;;
76035;SDS011;64732;56.314;44.068;2022-12-18T11:55:37;15.05;;;6.10;;
76035;SDS011;64732;56.314;44.068;2022-12-18T11:58:12;10.75;;;5.22;;
76035;SDS011;64732;56.314;44.068;2022-12-18T12:00:39;15.98;;;6.90;;
76035;SDS011;64732;56.314;44.068;2022-12-18T12:06:01;12.52;;;5.82;;
76035;SDS011;64732;56.314;44.068;2022-12-18T12:08:28;17.75;;;7.90;;
76035;SDS011;64732;56.314;44.068;2022-12-18T12:11:00;15.98;;;5.15;;
76035;SDS011;64732;56.314;44.068;2022-12-18T12:13:31;12.73;;;5.50;;
76035;SDS011;64732;56.314;44.068;2022-12-18T12:16:04;12.45;;;5.68;;
76035;SDS011;64732;56.314;44.068;2022-12-18T12:18:34;14.35;;;6.30;;
76035;SDS011;64732;56.314;44.068;2022-12-18T12:21:05;13.80;;;5.80;;
76035;SDS011;64732;56.314;44.068;2022-12-18T12:23:34;12.32;;;6.07;;
76035;SDS011;64732;56.314;44.068;2022-12-18T12:26:04;9.32;;;4.32;;
76035;SDS011;64732;56.314;44.068;2022-12-18T12:28:31;11.63;;;5.43;;
76035;SDS011;64732;56.314;44.068;2022-12-18T12:31:06;15.65;;;6.78;;
76035;SDS011;64732;56.314;44.068;2022-12-18T12:33:34;19.02;;;7.28;;
76035;SDS011;64732;56.314;44.068;2022-12-18T12:36:00;12.40;;;6.30;;
76035;SDS011;64732;56.314;44.068;2022-12-18T12:38:27;13.35;;;5.82;;
76035;SDS011;64732;56.314;44.068;2022-12-18T12:40:51;12.82;;;5.60;;
76035;SDS011;64732;56.314;44.068;2022-12-18T12:43:31;15.00;;;7.15;;
76035;SDS011;64732;56.314;44.068;2022-12-18T12:45:55;14.80;;;5.63;;
76035;SDS011;64732;56.314;44.068;2022-12-18T12:48:24;12.18;;;4.85;;
76035;SDS011;64732;56.314;44.068;2022-12-18T12:50:53;11.25;;;4.57;;
76035;SDS011;64732;56.314;44.068;2022-12-18T12:53:20;10.25;;;4.65;;
76035;SDS011;64732;56.314;44.068;2022-12-18T12:55:47;12.27;;;5.50;;
76035;SDS011;64732;56.314;44.068;2022-12-18T12:58:26;13.98;;;5.32;;
76035;SDS011;64732;56.314;44.068;2022-12-18T13:01:00;12.05;;;5.93;;
76035;SDS011;64732;56.314;44.068;2022-12-18T13:03:31;12.70;;;4.68;;
76035;SDS011;64732;56.314;44.068;2022-12-18T13:06:07;15.20;;;5.97;;
76035;SDS011;64732;56.314;44.068;2022-12-18T13:08:32;10.20;;;4.88;;
76035;SDS011;64732;56.314;44.068;2022-12-18T13:11:12;9.27;;;4.15;;
76035;SDS011;64732;56.314;44.068;2022-12-18T13:13:50;10.75;;;4.90;;
76035;SDS011;64732;56.314;44.068;2022-12-18T13:16:13;10.93;;;5.45;;
76035;SDS011;64732;56.314;44.068;2022-12-18T13:18:40;7.63;;;3.53;;
76035;SDS011;64732;56.314;44.068;2022-12-18T13:21:11;10.35;;;4.82;;
76035;SDS011;64732;56.314;44.068;2022-12-18T13:23:40;13.85;;;6.38;;
76035;SDS011;64732;56.314;44.068;2022-12-18T13:28:54;11.88;;;5.30;;
76035;SDS011;64732;56.314;44.068;2022-12-18T13:31:57;10.90;;;5.07;;
76035;SDS011;64732;56.314;44.068;2022-12-18T13:34:27;14.40;;;5.75;;
76035;SDS011;64732;56.314;44.068;2022-12-18T13:36:49;13.23;;;5.07;;
76035;SDS011;64732;56.314;44.068;2022-12-18T13:41:53;14.43;;;5.35;;
76035;SDS011;64732;56.314;44.068;2022-12-18T13:44:23;11.48;;;6.18;;
76035;SDS011;64732;56.314;44.068;2022-12-18T13:46:46;13.35;;;5.90;;
76035;SDS011;64732;56.314;44.068;2022-12-18T13:49:16;7.70;;;3.63;;
76035;SDS011;64732;56.314;44.068;2022-12-18T13:51:41;9.27;;;3.67;;
76035;SDS011;64732;56.314;44.068;2022-12-18T13:54:06;11.18;;;4.82;;
76035;SDS011;64732;56.314;44.068;2022-12-18T13:56:42;11.30;;;4.90;;
76035;SDS011;64732;56.314;44.068;2022-12-18T13:59:11;15.82;;;6.35;;
76035;SDS011;64732;56.314;44.068;2022-12-18T14:01:40;13.65;;;5.82;;
76035;SDS011;64732;56.314;44.068;2022-12-18T14:04:09;13.20;;;5.65;;
76035;SDS011;64732;56.314;44.068;2022-12-18T14:06:31;11.38;;;5.43;;
76035;SDS011;64732;56.314;44.068;2022-12-18T14:08:52;9.23;;;4.35;;
76035;SDS011;64732;56.314;44.068;2022-12-18T14:11:18;11.75;;;4.45;;